Time;durP1;ratioP1;P1;durP2;ratioP2;P2;SDS_P1;SDS_P2;PMS_P1;PMS_P2;Temp;Humidity;BMP_temperature;BMP_pressure;BME280_temperature;BME280_humidity;BME280_pressure;Samples;Min_cycle;Max_cycle;Signal;HPM_P1;HPM_P2
2022/08/08 00:00:20;;;;;;;2.28;1.48;;;12.70;99.90;;;;;;5044810;28;20037;-78
2022/08/08 00:03:07;;;;;;;4.13;1.60;;;12.80;99.90;;;;;;5042547;28;20033;-78
2022/08/08 00:05:56;;;;;;;3.20;1.50;;;12.70;99.90;;;;;;5042602;28;20041;-78
2022/08/08 00:08:51;;;;;;;3.13;1.67;;;12.60;99.90;;;;;;5043425;28;20480;-81
2022/08/08 00:11:36;;;;;;;1.35;1.23;;;12.60;99.90;;;;;;5044288;28;20403;-79
2022/08/08 00:14:24;;;;;;;3.22;2.08;;;12.70;99.90;;;;;;5046338;28;20090;-78
2022/08/08 00:17:07;;;;;;;5.00;2.00;;;12.70;99.90;;;;;;5042689;28;20140;-80
2022/08/08 00:19:57;;;;;;;8.73;2.13;;;12.70;99.90;;;;;;5043495;28;20040;-79
2022/08/08 00:22:44;;;;;;;5.05;1.90;;;12.60;99.90;;;;;;5042064;28;20040;-78
2022/08/08 00:25:16;;;;;;;2.25;1.98;;;12.60;99.90;;;;;;5042864;28;20152;-81
2022/08/08 00:27:44;;;;;;;2.38;1.60;;;12.60;99.90;;;;;;5049177;28;20438;-80
2022/08/08 00:30:11;;;;;;;2.65;1.55;;;12.50;99.90;;;;;;5049197;28;20488;-82
2022/08/08 00:32:59;;;;;;;4.13;1.45;;;12.40;99.90;;;;;;5045821;28;20124;-78
2022/08/08 00:35:34;;;;;;;5.28;1.65;;;12.40;99.90;;;;;;5053313;28;20759;-78
2022/08/08 00:38:41;;;;;;;6.28;2.30;;;12.30;99.90;;;;;;5030267;28;20504;-80
2022/08/08 00:41:39;;;;;;;3.80;2.50;;;12.30;99.90;;;;;;5046357;28;20426;-79
2022/08/08 00:44:26;;;;;;;5.57;2.63;;;12.20;99.90;;;;;;5047296;28;20045;-78
2022/08/08 00:47:29;;;;;;;4.43;2.40;;;12.20;99.90;;;;;;5051733;28;20045;-78
2022/08/08 00:50:16;;;;;;;4.50;2.65;;;12.20;99.90;;;;;;5047871;28;20884;-78
2022/08/08 00:53:05;;;;;;;3.55;2.80;;;12.30;99.90;;;;;;5047150;28;20063;-79
2022/08/08 00:55:53;;;;;;;3.22;2.63;;;12.30;99.90;;;;;;5048110;28;20427;-77
2022/08/08 00:58:43;;;;;;;3.50;2.85;;;12.30;99.90;;;;;;5045768;28;21660;-80
2022/08/08 01:01:21;;;;;;;3.72;3.40;;;12.30;99.90;;;;;;5047439;28;20149;-82
2022/08/08 01:03:58;;;;;;;3.13;2.83;;;12.40;99.90;;;;;;5047529;28;20056;-78
2022/08/08 01:06:49;;;;;;;3.88;2.40;;;12.40;99.90;;;;;;5046683;28;20139;-78
2022/08/08 01:09:42;;;;;;;2.35;2.05;;;12.50;99.90;;;;;;5046214;28;20047;-81
2022/08/08 01:12:35;;;;;;;2.67;2.35;;;12.50;99.90;;;;;;5047268;28;20818;-77
2022/08/08 01:15:40;;;;;;;4.15;2.08;;;12.40;99.90;;;;;;5047533;28;20036;-79
2022/08/08 01:18:17;;;;;;;2.70;1.73;;;12.40;99.90;;;;;;5045600;28;20045;-79
2022/08/08 01:21:06;;;;;;;2.20;1.85;;;12.30;99.90;;;;;;5046462;28;20044;-79
2022/08/08 01:23:31;;;;;;;2.83;2.30;;;12.20;99.90;;;;;;5046269;28;20124;-79
2022/08/08 01:26:18;;;;;;;3.92;2.33;;;12.10;99.90;;;;;;5047694;28;21175;-78
2022/08/08 01:29:21;;;;;;;2.95;2.00;;;12.10;99.90;;;;;;5044812;28;20050;-78
2022/08/08 01:31:59;;;;;;;2.72;1.67;;;12.10;99.90;;;;;;5046095;28;20131;-81
2022/08/08 01:35:04;;;;;;;2.72;2.25;;;12.10;99.90;;;;;;5051570;28;20952;-79
2022/08/08 01:38:11;;;;;;;2.42;1.98;;;12.10;99.90;;;;;;5039543;28;21851;-78
2022/08/08 01:41:09;;;;;;;4.47;2.22;;;12.00;99.90;;;;;;5053018;28;20044;-78
2022/08/08 01:43:48;;;;;;;2.22;1.40;;;12.00;99.90;;;;;;5047643;28;20047;-80
2022/08/08 01:46:48;;;;;;;2.83;1.90;;;12.10;99.90;;;;;;5030358;28;20040;-78
2022/08/08 01:49:20;;;;;;;2.95;1.65;;;12.10;99.90;;;;;;5045696;28;20389;-81
2022/08/08 01:52:13;;;;;;;3.20;1.80;;;12.00;99.90;;;;;;5045935;28;20052;-78
2022/08/08 01:54:49;;;;;;;3.83;2.10;;;11.90;99.90;;;;;;5048527;28;20744;-77
2022/08/08 01:57:40;;;;;;;3.72;2.30;;;11.90;99.90;;;;;;5047341;28;20506;-81
2022/08/08 02:00:18;;;;;;;3.55;2.20;;;11.80;99.90;;;;;;5045611;28;20095;-79
2022/08/08 02:03:03;;;;;;;3.35;2.58;;;11.70;99.90;;;;;;5046641;28;20082;-77
2022/08/08 02:06:12;;;;;;;6.45;2.85;;;11.70;99.90;;;;;;5045294;28;20105;-78
2022/08/08 02:09:15;;;;;;;3.83;2.47;;;11.70;99.90;;;;;;5045979;28;20047;-78
2022/08/08 02:11:46;;;;;;;3.65;2.47;;;11.70;99.90;;;;;;5041593;28;20789;-80
2022/08/08 02:14:50;;;;;;;4.07;2.13;;;11.70;99.90;;;;;;5044999;28;20474;-78
2022/08/08 02:17:23;;;;;;;4.55;1.88;;;11.70;99.90;;;;;;5046954;28;20554;-79
2022/08/08 02:20:10;;;;;;;6.00;2.90;;;11.60;99.90;;;;;;5044540;28;20052;-77
2022/08/08 02:23:04;;;;;;;8.27;4.22;;;11.60;99.90;;;;;;5046505;28;20076;-79
2022/08/08 02:25:41;;;;;;;3.30;3.00;;;11.60;99.90;;;;;;5047486;28;20269;-79
2022/08/08 02:28:28;;;;;;;3.67;3.35;;;11.60;99.90;;;;;;5045078;28;20037;-77
2022/08/08 02:31:02;;;;;;;2.97;2.58;;;11.60;99.90;;;;;;5044115;28;20127;-79
2022/08/08 02:33:50;;;;;;;2.92;2.40;;;11.60;99.90;;;;;;5046317;28;20433;-79
2022/08/08 02:36:33;;;;;;;2.10;1.90;;;11.50;99.90;;;;;;5045357;28;20068;-79
2022/08/08 02:39:24;;;;;;;3.13;2.45;;;11.50;99.90;;;;;;5044291;28;21007;-77
2022/08/08 02:42:25;;;;;;;4.28;2.50;;;11.60;99.90;;;;;;5041854;28;20764;-81
2022/08/08 02:45:23;;;;;;;6.07;2.17;;;11.60;99.90;;;;;;5045082;28;20499;-82
2022/08/08 02:48:00;;;;;;;2.30;2.10;;;11.60;99.90;;;;;;5045739;28;20072;-79
2022/08/08 02:50:35;;;;;;;1.63;1.52;;;11.50;99.90;;;;;;5043842;28;20044;-81
2022/08/08 02:53:22;;;;;;;3.45;3.13;;;11.60;99.90;;;;;;5027827;28;20048;-83
2022/08/08 02:56:15;;;;;;;4.13;3.70;;;11.50;99.90;;;;;;5047261;28;20044;-77
2022/08/08 02:59:02;;;;;;;4.43;3.33;;;11.50;99.90;;;;;;5043739;28;20059;-82
2022/08/08 03:02:02;;;;;;;6.03;3.90;;;11.40;99.90;;;;;;5043914;28;20436;-79
2022/08/08 03:04:30;;;;;;;3.40;3.10;;;11.40;99.90;;;;;;5044654;28;20060;-79
2022/08/08 03:07:33;;;;;;;3.17;2.53;;;11.30;99.90;;;;;;5046307;28;20055;-78
2022/08/08 03:10:48;;;;;;;8.15;2.80;;;11.30;99.90;;;;;;5052172;28;20051;-79
2022/08/08 03:13:51;;;;;;;3.60;3.10;;;11.30;99.90;;;;;;5052924;28;20037;-78
2022/08/08 03:16:30;;;;;;;3.40;3.10;;;11.30;99.90;;;;;;5051772;28;20121;-79
2022/08/08 03:19:20;;;;;;;4.80;2.97;;;11.30;99.90;;;;;;5022193;28;20052;-78
2022/08/08 03:21:45;;;;;;;4.15;3.72;;;11.40;99.90;;;;;;5052258;28;20048;-80
2022/08/08 03:24:14;;;;;;;3.67;3.33;;;11.40;99.90;;;;;;5050935;28;20129;-77
2022/08/08 03:26:47;;;;;;;5.25;2.85;;;11.30;99.90;;;;;;5051384;28;20049;-78
2022/08/08 03:29:18;;;;;;;5.68;3.10;;;11.30;99.90;;;;;;5049338;28;20087;-80
2022/08/08 03:34:30;;;;;;;2.97;2.67;;;11.10;99.90;;;;;;5053812;28;20051;-78
2022/08/08 03:36:56;;;;;;;4.43;2.58;;;11.10;99.90;;;;;;5053355;28;20040;-79
2022/08/08 03:39:22;;;;;;;2.25;2.03;;;11.10;99.90;;;;;;5039233;28;20037;-77
2022/08/08 03:41:47;;;;;;;3.95;2.60;;;11.10;99.90;;;;;;5050106;28;20090;-79
2022/08/08 03:44:13;;;;;;;3.80;3.10;;;11.20;99.90;;;;;;5053329;28;20075;-79
2022/08/08 03:46:43;;;;;;;3.15;2.80;;;11.20;99.90;;;;;;5038117;28;20055;-79
2022/08/08 03:49:17;;;;;;;3.25;2.20;;;11.20;99.90;;;;;;5055972;28;20077;-81
2022/08/08 03:51:42;;;;;;;3.05;2.42;;;11.20;99.90;;;;;;5051668;28;20148;-77
2022/08/08 03:54:09;;;;;;;3.50;2.45;;;11.20;99.90;;;;;;5056581;28;20045;-78
2022/08/08 03:56:34;;;;;;;3.75;2.35;;;11.20;99.90;;;;;;5056041;28;20048;-79
2022/08/08 03:59:00;;;;;;;4.75;3.03;;;11.30;99.90;;;;;;5049918;28;20049;-77
2022/08/08 04:01:34;;;;;;;6.28;2.47;;;11.20;99.90;;;;;;5051554;28;20041;-78
2022/08/08 04:04:00;;;;;;;2.85;2.38;;;11.20;99.90;;;;;;5054076;28;20041;-78
2022/08/08 04:06:26;;;;;;;3.80;2.38;;;11.20;99.90;;;;;;5055841;28;20059;-78
2022/08/08 04:08:51;;;;;;;2.38;2.17;;;11.10;99.90;;;;;;5052947;28;20487;-82
2022/08/08 04:11:17;;;;;;;4.90;2.50;;;11.10;99.90;;;;;;5057319;28;20426;-77
2022/08/08 04:13:42;;;;;;;4.75;2.60;;;11.10;99.90;;;;;;5038803;28;20037;-77
2022/08/08 04:16:08;;;;;;;2.70;2.45;;;11.10;99.90;;;;;;5053082;28;20518;-78
2022/08/08 04:18:34;;;;;;;4.60;3.38;;;11.10;99.90;;;;;;5056753;28;20048;-77
2022/08/08 04:20:59;;;;;;;4.07;2.40;;;11.20;99.90;;;;;;5055015;28;20041;-77
2022/08/08 04:23:25;;;;;;;3.83;2.63;;;11.30;99.90;;;;;;5068091;28;20167;-78
2022/08/08 04:25:50;;;;;;;6.10;2.38;;;11.30;99.90;;;;;;5056881;28;20045;-78
2022/08/08 04:28:16;;;;;;;4.50;2.58;;;11.50;99.90;;;;;;5051611;28;20040;-79
2022/08/08 04:30:41;;;;;;;1.75;1.48;;;11.60;99.90;;;;;;5054494;28;20048;-77
2022/08/08 04:33:07;;;;;;;1.85;1.70;;;11.60;99.90;;;;;;5057487;28;20514;-78
2022/08/08 04:35:33;;;;;;;7.82;3.45;;;11.50;99.90;;;;;;5054441;28;20049;-77
2022/08/08 04:37:59;;;;;;;5.07;3.50;;;11.50;99.90;;;;;;5056826;28;20070;-78
2022/08/08 04:40:25;;;;;;;7.75;2.50;;;11.50;99.90;;;;;;5057710;28;20944;-77
2022/08/08 04:42:51;;;;;;;5.63;2.30;;;11.50;99.90;;;;;;5051921;28;20055;-78
2022/08/08 04:45:16;;;;;;;11.00;2.80;;;11.70;99.90;;;;;;5055634;28;20151;-77
2022/08/08 04:47:42;;;;;;;6.55;2.30;;;11.90;99.90;;;;;;5054223;28;20595;-77
2022/08/08 04:50:07;;;;;;;2.42;2.10;;;12.00;99.90;;;;;;5052180;28;20033;-79
2022/08/08 04:52:33;;;;;;;3.30;2.20;;;12.10;99.90;;;;;;5042657;28;20048;-78
2022/08/08 04:54:59;;;;;;;2.35;2.15;;;12.10;99.90;;;;;;5053874;28;20422;-79
2022/08/08 04:57:24;;;;;;;4.55;2.60;;;12.20;99.90;;;;;;5054182;28;20060;-80
2022/08/08 04:59:50;;;;;;;7.43;2.85;;;12.40;99.90;;;;;;5058118;28;20479;-79
2022/08/08 05:02:16;;;;;;;5.25;3.13;;;13.00;99.90;;;;;;5054103;28;20825;-77
2022/08/08 05:04:42;;;;;;;18.45;5.65;;;13.30;99.90;;;;;;5056502;28;20025;-79
2022/08/08 05:07:07;;;;;;;34.05;8.93;;;13.40;99.90;;;;;;5057458;28;20040;-80
2022/08/08 05:09:34;;;;;;;19.88;6.97;;;13.50;99.90;;;;;;5058785;28;20766;-80
2022/08/08 05:12:00;;;;;;;12.00;5.65;;;13.50;99.90;;;;;;5052585;28;20041;-77
2022/08/08 05:14:26;;;;;;;7.90;4.70;;;13.70;99.90;;;;;;5056175;28;20052;-77
2022/08/08 05:16:52;;;;;;;6.50;4.13;;;13.80;99.90;;;;;;5057306;28;20041;-80
2022/08/08 05:19:17;;;;;;;11.35;4.53;;;14.00;99.90;;;;;;5057026;28;20089;-77
2022/08/08 05:21:43;;;;;;;9.82;4.30;;;14.30;99.90;;;;;;5059056;28;20503;-79
2022/08/08 05:24:10;;;;;;;13.27;5.10;;;14.80;99.90;;;;;;5059850;28;20040;-77
2022/08/08 05:26:36;;;;;;;11.02;6.95;;;16.20;99.90;;;;;;5036670;28;20056;-77
2022/08/08 05:29:07;;;;;;;9.93;3.95;;;18.20;99.90;;;;;;5057837;28;20119;-79
2022/08/08 05:31:33;;;;;;;8.18;3.05;;;19.90;99.90;;;;;;5052783;28;20041;-78
2022/08/08 05:33:58;;;;;;;7.45;2.40;;;21.70;99.90;;;;;;5054828;28;20049;-81
2022/08/08 05:36:25;;;;;;;7.38;2.33;;;23.30;99.90;;;;;;5053358;28;20044;-80
2022/08/08 05:38:52;;;;;;;11.15;2.08;;;24.70;99.90;;;;;;5053785;28;20060;-78
2022/08/08 05:41:22;;;;;;;19.70;3.05;;;26.00;99.90;;;;;;5052920;28;20537;-79
2022/08/08 05:43:48;;;;;;;23.00;3.10;;;27.10;99.90;;;;;;5058624;28;20451;-79
2022/08/08 05:46:15;;;;;;;9.27;2.80;;;28.20;99.90;;;;;;5053709;28;20211;-78
2022/08/08 05:48:41;;;;;;;23.30;3.67;;;28.80;99.90;;;;;;5055311;28;20048;-78
2022/08/08 05:51:07;;;;;;;19.80;2.42;;;29.50;99.90;;;;;;5053942;28;20044;-78
2022/08/08 05:53:32;;;;;;;15.73;1.95;;;30.20;99.90;;;;;;5056268;28;20049;-78
2022/08/08 05:55:59;;;;;;;4.50;2.13;;;30.90;98.90;;;;;;5054013;28;20037;-78
2022/08/08 05:58:28;;;;;;;4.55;1.15;;;31.60;97.70;;;;;;5052060;28;20747;-78
2022/08/08 06:01:01;;;;;;;7.85;1.52;;;32.40;96.20;;;;;;5047778;28;20078;-80
2022/08/08 06:03:28;;;;;;;3.20;1.13;;;33.00;95.20;;;;;;5054912;28;20091;-78
2022/08/08 06:05:54;;;;;;;6.20;1.77;;;33.30;94.20;;;;;;5053925;28;20041;-82
2022/08/08 06:08:28;;;;;;;4.82;1.70;;;34.00;93.40;;;;;;5055696;28;20033;-79
2022/08/08 06:10:55;;;;;;;2.97;1.07;;;34.50;91.30;;;;;;5055340;28;20155;-78
2022/08/08 06:13:22;;;;;;;5.03;1.50;;;34.70;91.30;;;;;;5055010;28;20135;-79
2022/08/08 06:15:49;;;;;;;4.60;1.20;;;35.20;90.40;;;;;;5054113;28;21739;-82
2022/08/08 06:18:16;;;;;;;4.43;1.17;;;35.60;89.20;;;;;;5052550;28;20036;-82
2022/08/08 06:20:43;;;;;;;4.32;1.45;;;35.50;86.80;;;;;;5053628;28;20040;-79
2022/08/08 06:23:09;;;;;;;3.05;1.38;;;34.50;86.00;;;;;;5055914;28;20407;-80
2022/08/08 06:25:42;;;;;;;3.58;1.33;;;33.50;86.50;;;;;;5055779;28;20102;-79
2022/08/08 06:28:30;;;;;;;5.60;1.65;;;32.60;87.50;;;;;;5053764;28;20041;-78
2022/08/08 06:30:59;;;;;;;3.88;1.55;;;31.80;89.00;;;;;;5052691;28;20135;-79
2022/08/08 06:33:34;;;;;;;5.38;1.60;;;31.10;89.20;;;;;;5052650;28;20044;-80
2022/08/08 06:36:01;;;;;;;4.45;1.17;;;30.40;89.80;;;;;;5051749;28;20099;-78
2022/08/08 06:38:33;;;;;;;8.43;1.83;;;29.90;90.40;;;;;;5058299;28;20103;-80
2022/08/08 06:41:04;;;;;;;7.22;1.70;;;29.10;90.90;;;;;;5058594;28;20059;-80
2022/08/08 06:43:34;;;;;;;5.35;1.58;;;28.40;91.50;;;;;;5052101;28;20116;-79
2022/08/08 06:46:05;;;;;;;5.20;1.33;;;27.90;92.40;;;;;;5057828;28;20167;-79
2022/08/08 06:48:32;;;;;;;5.53;1.73;;;27.50;93.00;;;;;;5050871;28;20407;-81
2022/08/08 06:50:58;;;;;;;2.95;1.33;;;27.10;93.50;;;;;;5052570;28;20043;-82
2022/08/08 06:53:25;;;;;;;8.57;1.65;;;26.60;93.50;;;;;;5053540;28;20040;-80
2022/08/08 06:55:52;;;;;;;5.65;1.58;;;26.10;93.80;;;;;;5053596;28;20080;-79
2022/08/08 06:58:17;;;;;;;5.80;1.55;;;25.60;94.50;;;;;;5057546;28;20128;-79
2022/08/08 07:00:46;;;;;;;7.00;1.63;;;25.20;95.00;;;;;;5056533;28;20069;-78
2022/08/08 07:03:38;;;;;;;5.10;1.30;;;24.90;95.50;;;;;;5057432;28;20083;-79
2022/08/08 07:06:08;;;;;;;4.13;1.00;;;24.60;95.90;;;;;;5057123;28;20496;-79
2022/08/08 07:08:37;;;;;;;4.97;1.05;;;24.20;96.20;;;;;;5051540;28;20135;-82
2022/08/08 07:11:04;;;;;;;3.58;1.15;;;23.90;96.60;;;;;;5055633;28;20044;-79
2022/08/08 07:13:43;;;;;;;6.03;1.67;;;23.70;97.20;;;;;;5052818;28;20037;-79
2022/08/08 07:16:19;;;;;;;6.75;1.20;;;23.40;97.90;;;;;;5052751;28;20071;-78
2022/08/08 07:19:06;;;;;;;3.67;1.30;;;23.10;98.40;;;;;;5051142;28;20144;-76
2022/08/08 07:21:41;;;;;;;6.80;0.95;;;22.90;98.90;;;;;;5054959;28;20384;-79
2022/08/08 07:24:15;;;;;;;4.35;1.02;;;22.80;99.50;;;;;;5052157;28;20033;-78
2022/08/08 07:26:45;;;;;;;4.38;1.15;;;22.80;99.90;;;;;;5054228;28;20094;-78
2022/08/08 07:29:11;;;;;;;5.82;1.13;;;22.80;99.90;;;;;;5054604;28;20044;-79
2022/08/08 07:31:37;;;;;;;3.85;0.80;;;23.10;99.90;;;;;;5054864;28;20036;-80
2022/08/08 07:34:03;;;;;;;8.93;1.15;;;23.20;99.90;;;;;;5053512;28;20079;-78
2022/08/08 07:36:30;;;;;;;4.70;0.70;;;23.20;99.90;;;;;;5059822;28;20046;-79
2022/08/08 07:38:58;;;;;;;9.43;1.15;;;23.20;99.90;;;;;;5050555;28;20071;-78
2022/08/08 07:41:26;;;;;;;8.77;1.05;;;23.20;99.90;;;;;;5051686;28;20041;-78
2022/08/08 07:43:54;;;;;;;8.07;1.13;;;23.30;99.90;;;;;;5052453;28;20040;-78
2022/08/08 07:46:20;;;;;;;3.72;0.88;;;23.30;99.90;;;;;;5052121;28;20052;-78
2022/08/08 07:48:46;;;;;;;3.90;0.60;;;23.50;99.90;;;;;;5058520;28;20045;-78
2022/08/08 07:51:11;;;;;;;4.93;0.85;;;23.70;99.90;;;;;;5049265;28;20048;-81
2022/08/08 07:54:04;;;;;;;2.92;0.85;;;24.00;99.90;;;;;;5052983;28;20650;-80
2022/08/08 07:56:37;;;;;;;4.93;0.88;;;24.30;99.90;;;;;;5053598;28;20064;-79
2022/08/08 07:59:10;;;;;;;4.07;1.30;;;24.30;99.90;;;;;;5053618;28;20072;-80
2022/08/08 08:01:37;;;;;;;5.00;0.90;;;24.10;99.50;;;;;;5050518;28;20041;-79
2022/08/08 08:04:07;;;;;;;6.50;1.17;;;23.90;99.60;;;;;;5051229;28;20072;-77
2022/08/08 08:06:33;;;;;;;4.57;1.38;;;23.70;99.80;;;;;;5052144;28;20064;-79
2022/08/08 08:09:07;;;;;;;5.43;0.70;;;23.50;99.70;;;;;;5050959;28;20471;-79
2022/08/08 08:11:36;;;;;;;5.57;0.60;;;23.30;99.90;;;;;;5055041;28;20120;-78
2022/08/08 08:14:03;;;;;;;5.57;0.88;;;23.40;99.90;;;;;;5052926;28;20049;-80
2022/08/08 08:16:32;;;;;;;4.70;0.80;;;23.60;99.90;;;;;;5053037;28;20561;-81
2022/08/08 08:19:00;;;;;;;6.75;0.88;;;23.50;99.80;;;;;;5045868;28;20056;-76
2022/08/08 08:21:29;;;;;;;3.55;0.93;;;23.20;99.90;;;;;;5052067;28;20124;-78
2022/08/08 08:23:55;;;;;;;21.02;1.23;;;23.00;99.90;;;;;;5050040;28;20057;-78
2022/08/08 08:26:21;;;;;;;6.00;1.42;;;22.70;99.90;;;;;;5052062;28;20703;-76
2022/08/08 08:28:47;;;;;;;2.38;0.45;;;22.70;99.90;;;;;;5050647;28;20060;-77
2022/08/08 08:31:13;;;;;;;6.97;0.57;;;22.80;99.90;;;;;;5052901;28;20045;-77
2022/08/08 08:33:39;;;;;;;3.80;0.60;;;23.00;99.90;;;;;;5053444;28;20103;-77
2022/08/08 08:36:09;;;;;;;9.05;1.52;;;23.30;99.90;;;;;;5050718;28;20040;-76
2022/08/08 08:38:34;;;;;;;4.43;0.93;;;23.60;99.90;;;;;;5051744;28;20045;-79
2022/08/08 08:41:01;;;;;;;3.88;1.05;;;23.90;99.90;;;;;;5053739;28;20557;-77
2022/08/08 08:43:27;;;;;;;6.07;0.57;;;24.30;99.90;;;;;;5056256;28;20097;-77
2022/08/08 08:45:56;;;;;;;6.22;0.73;;;24.40;99.00;;;;;;5052590;28;20081;-77
2022/08/08 08:48:22;;;;;;;2.30;0.50;;;24.50;99.50;;;;;;5051478;28;20052;-78
2022/08/08 08:50:52;;;;;;;1.05;0.40;;;24.70;99.30;;;;;;5053679;28;20040;-78
2022/08/08 08:53:19;;;;;;;4.13;0.57;;;24.90;98.00;;;;;;5063281;28;20052;-77
2022/08/08 08:55:46;;;;;;;3.10;0.73;;;25.20;97.50;;;;;;5058581;28;20109;-77
2022/08/08 08:58:42;;;;;;;1.58;0.73;;;25.00;97.20;;;;;;5055447;28;20394;-78
2022/08/08 09:01:10;;;;;;;2.17;0.60;;;24.60;96.80;;;;;;5056220;28;20032;-77
2022/08/08 09:03:40;;;;;;;4.32;0.60;;;24.30;97.50;;;;;;5051642;28;20499;-78
2022/08/08 09:06:12;;;;;;;2.10;0.40;;;24.20;98.20;;;;;;5056163;28;20547;-77
2022/08/08 09:08:40;;;;;;;3.60;0.88;;;24.10;97.80;;;;;;5049920;28;20037;-80
2022/08/08 09:11:06;;;;;;;2.22;0.38;;;24.00;98.00;;;;;;5056228;28;20043;-77
2022/08/08 09:13:34;;;;;;;2.17;0.50;;;23.90;97.80;;;;;;5058470;28;20036;-78
2022/08/08 09:16:01;;;;;;;1.50;0.40;;;23.90;98.00;;;;;;5055328;28;20056;-77
2022/08/08 09:18:27;;;;;;;1.55;0.32;;;23.90;98.50;;;;;;5057650;28;20036;-77
2022/08/08 09:20:53;;;;;;;1.95;0.40;;;24.10;98.50;;;;;;5057697;28;20086;-77
2022/08/08 09:23:20;;;;;;;1.67;0.50;;;24.40;98.10;;;;;;5055138;28;20036;-77
2022/08/08 09:26:00;;;;;;;2.88;0.40;;;24.60;97.90;;;;;;5056047;28;20053;-78
2022/08/08 09:28:27;;;;;;;4.43;0.55;;;24.90;97.80;;;;;;5054893;28;20082;-78
2022/08/08 09:30:59;;;;;;;3.30;0.32;;;24.90;97.30;;;;;;5050808;28;20051;-78
2022/08/08 09:33:27;;;;;;;1.67;0.50;;;24.80;97.20;;;;;;5056799;28;20090;-78
2022/08/08 09:35:53;;;;;;;1.10;0.32;;;25.00;97.30;;;;;;5061332;28;20573;-78
2022/08/08 09:38:30;;;;;;;0.88;0.20;;;25.20;97.70;;;;;;5059812;28;20055;-78
2022/08/08 09:41:03;;;;;;;3.70;0.35;;;25.20;95.50;;;;;;5057349;28;20045;-78
2022/08/08 09:43:32;;;;;;;4.35;0.47;;;25.30;96.10;;;;;;5056591;28;20124;-77
2022/08/08 09:46:04;;;;;;;1.75;0.30;;;25.60;95.60;;;;;;5054147;28;20056;-78
2022/08/08 09:48:33;;;;;;;1.27;0.50;;;25.60;94.20;;;;;;5054675;28;20033;-79
2022/08/08 09:50:59;;;;;;;3.67;0.20;;;25.50;94.50;;;;;;5054243;28;20404;-83
2022/08/08 09:54:05;;;;;;;4.07;0.50;;;25.60;93.60;;;;;;5056651;28;20048;-78
2022/08/08 09:56:36;;;;;;;2.15;0.40;;;25.60;93.60;;;;;;5060612;28;20044;-81
2022/08/08 09:59:04;;;;;;;0.98;0.30;;;25.60;94.10;;;;;;5063628;28;20118;-78
2022/08/08 10:01:31;;;;;;;2.00;0.30;;;25.60;93.40;;;;;;5056609;28;20087;-81
2022/08/08 10:03:58;;;;;;;1.20;0.30;;;25.80;93.50;;;;;;5057853;28;20049;-80
2022/08/08 10:06:24;;;;;;;3.38;0.40;;;26.20;93.60;;;;;;5053091;28;20802;-80
2022/08/08 10:08:51;;;;;;;5.25;0.52;;;26.10;92.70;;;;;;5054722;28;20124;-78
2022/08/08 10:11:21;;;;;;;1.85;0.40;;;26.00;92.50;;;;;;5057336;28;20043;-79
2022/08/08 10:13:54;;;;;;;1.65;0.25;;;25.80;92.30;;;;;;5056864;28;20033;-78
2022/08/08 10:16:21;;;;;;;0.75;0.30;;;25.60;92.50;;;;;;5064400;28;20775;-77
2022/08/08 10:18:47;;;;;;;1.02;0.30;;;25.30;92.60;;;;;;5055181;28;20041;-77
2022/08/08 10:21:18;;;;;;;3.65;0.40;;;25.10;92.40;;;;;;5052934;28;20524;-80
2022/08/08 10:23:45;;;;;;;2.85;0.50;;;25.00;92.90;;;;;;5055543;28;20041;-78
2022/08/08 10:26:28;;;;;;;3.90;0.77;;;24.70;93.00;;;;;;5055510;28;20106;-77
2022/08/08 10:28:56;;;;;;;3.47;0.38;;;24.50;92.90;;;;;;5054899;28;21180;-77
2022/08/08 10:34:17;;;;;;;2.92;0.93;;;24.30;94.00;;;;;;5054470;28;20419;-77
2022/08/08 10:36:43;;;;;;;6.63;1.08;;;24.30;94.30;;;;;;5058716;28;20542;-76
2022/08/08 10:39:13;;;;;;;5.15;0.82;;;24.30;94.50;;;;;;5054093;28;20435;-77
2022/08/08 10:41:42;;;;;;;4.53;0.43;;;24.20;94.80;;;;;;5055196;28;20065;-76
2022/08/08 10:44:11;;;;;;;4.10;0.60;;;24.20;95.20;;;;;;5052044;28;20033;-76
2022/08/08 10:46:37;;;;;;;1.70;0.52;;;24.20;95.20;;;;;;5055389;28;20964;-77
2022/08/08 10:49:02;;;;;;;3.40;0.40;;;24.10;95.20;;;;;;5050733;28;20075;-78
2022/08/08 10:51:34;;;;;;;1.83;0.40;;;24.20;95.70;;;;;;5051696;28;20056;-80
2022/08/08 10:53:59;;;;;;;1.63;0.40;;;23.90;96.20;;;;;;5057900;28;20056;-77
2022/08/08 10:56:30;;;;;;;1.48;0.40;;;23.90;96.20;;;;;;5052047;28;20041;-76
2022/08/08 10:58:57;;;;;;;1.00;0.20;;;24.00;96.30;;;;;;5055222;28;20045;-76
2022/08/08 11:01:28;;;;;;;2.47;0.47;;;24.00;96.10;;;;;;5052480;28;20040;-77
2022/08/08 11:03:58;;;;;;;0.47;0.30;;;24.00;96.10;;;;;;5055272;28;20028;-77
2022/08/08 11:06:32;;;;;;;1.35;0.30;;;24.00;96.00;;;;;;5054104;28;20037;-77
2022/08/08 11:09:08;;;;;;;22.70;1.83;;;23.90;96.60;;;;;;5049726;28;20145;-77
2022/08/08 11:11:42;;;;;;;0.88;0.30;;;23.90;97.10;;;;;;5052775;28;20037;-77
2022/08/08 11:14:09;;;;;;;3.25;0.60;;;23.90;96.70;;;;;;5056825;28;20416;-78
2022/08/08 11:16:36;;;;;;;4.55;0.73;;;24.00;96.60;;;;;;5053495;28;20041;-78
2022/08/08 11:19:03;;;;;;;2.53;0.80;;;24.00;96.60;;;;;;5052104;28;20464;-78
2022/08/08 11:21:33;;;;;;;4.82;0.45;;;23.90;96.50;;;;;;5054316;28;20114;-76
2022/08/08 11:24:04;;;;;;;0.88;0.30;;;24.00;96.80;;;;;;5056600;28;20048;-78
2022/08/08 11:26:34;;;;;;;4.60;0.85;;;23.90;96.70;;;;;;5059089;28;20578;-79
2022/08/08 11:29:04;;;;;;;3.75;0.50;;;24.00;96.70;;;;;;5056591;28;20048;-76
2022/08/08 11:31:44;;;;;;;6.18;0.38;;;24.00;96.70;;;;;;5056192;28;20571;-78
2022/08/08 11:34:10;;;;;;;3.50;0.60;;;24.10;97.00;;;;;;5057527;28;20083;-80
2022/08/08 11:36:36;;;;;;;3.55;0.40;;;24.10;96.70;;;;;;5054854;28;20076;-79
2022/08/08 11:39:05;;;;;;;1.95;0.40;;;24.20;96.70;;;;;;5061459;28;20052;-78
2022/08/08 11:41:30;;;;;;;10.05;0.93;;;24.30;96.40;;;;;;5057945;28;20043;-78
2022/08/08 11:43:56;;;;;;;9.32;0.50;;;24.30;96.20;;;;;;5055868;28;20037;-77
2022/08/08 11:46:26;;;;;;;2.60;0.50;;;24.30;95.90;;;;;;5052458;28;21772;-80
2022/08/08 11:48:52;;;;;;;3.80;0.50;;;24.40;95.70;;;;;;5056438;28;20028;-78
2022/08/08 11:51:20;;;;;;;1.73;0.20;;;24.50;95.60;;;;;;5060113;28;20040;-78
2022/08/08 11:53:46;;;;;;;3.47;0.50;;;24.50;95.60;;;;;;5037199;28;20049;-79
2022/08/08 11:56:22;;;;;;;46.10;2.92;;;24.50;95.90;;;;;;5055835;28;20502;-78
2022/08/08 11:58:49;;;;;;;10.20;0.40;;;24.50;95.80;;;;;;5053104;28;20163;-78
2022/08/08 12:01:16;;;;;;;7.63;0.60;;;24.60;96.40;;;;;;5051824;28;20060;-78
2022/08/08 12:03:46;;;;;;;5.93;0.40;;;24.70;97.00;;;;;;5060682;28;20047;-79
2022/08/08 12:06:14;;;;;;;3.88;0.40;;;24.70;97.50;;;;;;5053695;28;20163;-79
2022/08/08 12:08:40;;;;;;;4.20;0.50;;;24.60;97.30;;;;;;5057277;28;20045;-79
2022/08/08 12:11:20;;;;;;;3.35;0.70;;;24.60;97.50;;;;;;5055221;28;20045;-79
2022/08/08 12:13:49;;;;;;;3.70;0.63;;;24.70;97.80;;;;;;5062043;28;20376;-76
2022/08/08 12:16:20;;;;;;;1.95;0.77;;;24.70;97.30;;;;;;5055270;28;20048;-79
2022/08/08 12:18:47;;;;;;;6.03;3.75;;;24.80;97.70;;;;;;5056343;28;20048;-77
2022/08/08 12:21:33;;;;;;;5.20;1.05;;;24.70;97.60;;;;;;5056593;28;20153;-79
2022/08/08 12:24:12;;;;;;;4.35;1.50;;;24.80;97.30;;;;;;5060297;28;20128;-79
2022/08/08 12:26:45;;;;;;;4.63;1.40;;;24.80;97.40;;;;;;5063502;28;20044;-78
2022/08/08 12:29:26;;;;;;;3.58;1.35;;;24.80;97.50;;;;;;5063238;28;20055;-78
2022/08/08 12:32:08;;;;;;;38.03;6.63;;;24.80;97.30;;;;;;5061190;28;20039;-78
2022/08/08 12:34:44;;;;;;;3.50;0.45;;;24.70;97.60;;;;;;5065902;28;20531;-77
2022/08/08 12:37:18;;;;;;;61.22;9.98;;;24.80;97.60;;;;;;5059134;28;20171;-78
2022/08/08 12:39:44;;;;;;;8.45;0.82;;;25.00;97.80;;;;;;5061573;28;20052;-79
2022/08/08 12:42:10;;;;;;;2.35;0.45;;;24.90;97.60;;;;;;5062050;28;20057;-80
2022/08/08 12:44:35;;;;;;;5.75;0.40;;;25.00;97.30;;;;;;5060188;28;20067;-79
2022/08/08 12:47:04;;;;;;;7.32;0.50;;;25.00;97.60;;;;;;5057316;28;20040;-79
2022/08/08 12:49:32;;;;;;;1.80;0.35;;;25.00;96.80;;;;;;5060175;28;20045;-80
2022/08/08 12:51:58;;;;;;;4.50;0.40;;;25.00;96.90;;;;;;5062112;28;20452;-80
2022/08/08 12:54:31;;;;;;;52.55;8.77;;;24.90;96.60;;;;;;5061848;28;20083;-79
2022/08/08 12:56:57;;;;;;;66.05;8.38;;;24.80;96.40;;;;;;5063976;28;20550;-80
2022/08/08 12:59:26;;;;;;;2.20;0.63;;;24.70;96.30;;;;;;5059756;28;20052;-80
2022/08/08 13:01:58;;;;;;;1.58;0.38;;;24.50;96.20;;;;;;5057753;28;20406;-78
2022/08/08 13:04:29;;;;;;;2.45;0.40;;;24.50;96.80;;;;;;5058265;28;20076;-80
2022/08/08 13:07:07;;;;;;;0.93;0.32;;;24.40;96.40;;;;;;5061164;28;20083;-80
2022/08/08 13:09:52;;;;;;;5.35;0.40;;;24.30;96.60;;;;;;5057276;28;20043;-78
2022/08/08 13:12:43;;;;;;;3.03;0.50;;;24.20;96.40;;;;;;5059734;28;20150;-80
2022/08/08 13:15:17;;;;;;;2.72;0.85;;;24.10;96.30;;;;;;5059199;28;20384;-79
2022/08/08 13:17:43;;;;;;;3.95;0.68;;;24.00;96.20;;;;;;5063641;28;20045;-79
2022/08/08 13:20:15;;;;;;;3.40;0.55;;;23.80;96.70;;;;;;5057525;28;20036;-79
2022/08/08 13:22:44;;;;;;;4.00;0.43;;;23.70;97.30;;;;;;5057444;28;20037;-76